Time;durP1;ratioP1;P1;durP2;ratioP2;P2;SDS_P1;SDS_P2;PMS_P1;PMS_P2;Temp;Humidity;BMP_temperature;BMP_pressure;BME280_temperature;BME280_humidity;BME280_pressure;Samples;Min_cycle;Max_cycle;Signal;HPM_P1;HPM_P2
2023/05/03 00:02:03;;;;;;;0.75;0.68;;;;;;;;;;5062362;28;20062;-86
2023/05/03 00:04:52;;;;;;;0.88;0.70;;;;;;;;;;5058500;28;20044;-84
2023/05/03 00:07:20;;;;;;;0.63;0.63;;;;;;;;;;5066007;28;20025;-85
2023/05/03 00:09:52;;;;;;;2.50;1.05;;;;;;;;;;5058041;28;20033;-86
2023/05/03 00:12:29;;;;;;;1.10;0.88;;;;;;;;;;5066524;28;20431;-84
2023/05/03 00:14:57;;;;;;;1.40;0.88;;;;;;;;;;5060253;28;20021;-83
2023/05/03 00:17:29;;;;;;;1.25;0.82;;;;;;;;;;5066583;28;20099;-84
2023/05/03 00:20:25;;;;;;;6.65;1.00;;;;;;;;;;5069023;28;20438;-86
2023/05/03 00:23:22;;;;;;;1.10;0.90;;;;;;;;;;5067887;28;20050;-83
2023/05/03 00:26:00;;;;;;;2.53;1.40;;;;;;;;;;5025077;28;20128;-84
2023/05/03 00:28:28;;;;;;;7.88;1.25;;;;;;;;;;5060358;28;20025;-83
2023/05/03 00:30:56;;;;;;;1.58;0.73;;;;;;;;;;5057375;28;20029;-82
2023/05/03 00:33:41;;;;;;;2.78;1.00;;;;;;;;;;5066620;28;20032;-83
2023/05/03 00:36:24;;;;;;;3.05;1.33;;;;;;;;;;5062668;28;20071;-84
2023/05/03 00:38:49;;;;;;;1.45;1.02;;;;;;;;;;5057783;28;20033;-84
2023/05/03 00:41:18;;;;;;;1.20;0.98;;;;;;;;;;5066811;28;20028;-87
2023/05/03 00:43:43;;;;;;;3.70;1.25;;;;;;;;;;5064022;28;20044;-87
2023/05/03 00:46:10;;;;;;;9.60;1.50;;;;;;;;;;5060184;28;20063;-85
2023/05/03 00:48:41;;;;;;;0.52;0.50;;;;;;;;;;5063416;28;20028;-83
2023/05/03 00:51:20;;;;;;;1.95;1.00;;;;;;;;;;5094508;28;20580;-85
2023/05/03 00:53:46;;;;;;;1.13;0.88;;;;;;;;;;5064241;28;20036;-84
2023/05/03 00:56:19;;;;;;;1.73;0.93;;;;;;;;;;5061556;28;20480;-84
2023/05/03 00:58:45;;;;;;;3.53;1.40;;;;;;;;;;5061553;28;20029;-85
2023/05/03 01:01:14;;;;;;;2.15;1.10;;;;;;;;;;5058015;28;20024;-86
2023/05/03 01:03:40;;;;;;;1.33;0.87;;;;;;;;;;5063471;28;20504;-85
2023/05/03 01:06:46;;;;;;;0.73;0.40;;;;;;;;;;5062677;28;20047;-81
2023/05/03 01:09:23;;;;;;;1.92;1.00;;;;;;;;;;5058027;28;20021;-83
2023/05/03 01:12:02;;;;;;;3.05;1.25;;;;;;;;;;5058598;28;20025;-84
2023/05/03 01:15:01;;;;;;;1.90;0.95;;;;;;;;;;5058791;28;20032;-86
2023/05/03 01:17:34;;;;;;;2.13;1.10;;;;;;;;;;5061376;28;20040;-87
2023/05/03 01:20:07;;;;;;;2.03;1.20;;;;;;;;;;5054878;28;20435;-85
2023/05/03 01:23:04;;;;;;;3.15;0.82;;;;;;;;;;5057870;28;20103;-81
2023/05/03 01:25:30;;;;;;;5.55;0.98;;;;;;;;;;5061643;28;20043;-84
2023/05/03 01:27:58;;;;;;;1.25;1.00;;;;;;;;;;5058222;28;20119;-82
2023/05/03 01:30:35;;;;;;;1.42;0.80;;;;;;;;;;5060060;28;20024;-84
2023/05/03 01:33:35;;;;;;;1.60;0.95;;;;;;;;;;5062716;28;20086;-85
2023/05/03 01:36:34;;;;;;;0.73;0.73;;;;;;;;;;5057945;28;20537;-84
2023/05/03 01:39:09;;;;;;;1.02;0.95;;;;;;;;;;5062417;28;20040;-85
2023/05/03 01:41:51;;;;;;;2.97;1.00;;;;;;;;;;5057979;28;20814;-82
2023/05/03 01:44:26;;;;;;;2.00;1.23;;;;;;;;;;5058617;28;20047;-81
2023/05/03 01:46:56;;;;;;;1.25;1.08;;;;;;;;;;5062274;28;20059;-84
2023/05/03 01:49:24;;;;;;;1.60;1.23;;;;;;;;;;5059921;28;20044;-81
2023/05/03 01:51:53;;;;;;;1.05;0.90;;;;;;;;;;5053340;28;20327;-84
2023/05/03 01:54:19;;;;;;;5.35;1.73;;;;;;;;;;5056015;28;20040;-84
2023/05/03 01:59:44;;;;;;;1.90;0.80;;;;;;;;;;5060382;28;20044;-81
2023/05/03 02:02:10;;;;;;;1.48;1.10;;;;;;;;;;5059885;28;20024;-82
2023/05/03 02:04:36;;;;;;;1.33;0.70;;;;;;;;;;5063034;28;20170;-82
2023/05/03 02:07:02;;;;;;;1.50;0.75;;;;;;;;;;5061020;28;20042;-83
2023/05/03 02:09:31;;;;;;;1.35;1.20;;;;;;;;;;5060295;28;20115;-83
2023/05/03 02:11:56;;;;;;;3.80;1.38;;;;;;;;;;5059478;28;20025;-87
2023/05/03 02:14:22;;;;;;;2.63;1.17;;;;;;;;;;5064700;28;20051;-81
2023/05/03 02:16:56;;;;;;;0.98;0.68;;;;;;;;;;5063968;28;20086;-83
2023/05/03 02:19:21;;;;;;;1.95;1.30;;;;;;;;;;5061981;28;20046;-86
2023/05/03 02:21:49;;;;;;;2.40;1.20;;;;;;;;;;5060578;28;20108;-84
2023/05/03 02:24:18;;;;;;;2.17;1.45;;;;;;;;;;5061588;28;20031;-83
2023/05/03 02:26:44;;;;;;;1.60;1.07;;;;;;;;;;5051701;28;20059;-86
2023/05/03 02:29:10;;;;;;;1.02;0.80;;;;;;;;;;5064448;28;20453;-84
2023/05/03 02:31:43;;;;;;;1.60;1.17;;;;;;;;;;5055741;28;20052;-86
2023/05/03 02:34:09;;;;;;;2.47;1.30;;;;;;;;;;5065465;28;20028;-82
2023/05/03 02:36:35;;;;;;;2.15;0.82;;;;;;;;;;5061677;28;20383;-83
2023/05/03 02:39:11;;;;;;;0.47;0.47;;;;;;;;;;5054413;28;20082;-84
2023/05/03 02:41:52;;;;;;;2.15;1.13;;;;;;;;;;5054927;28;20078;-85
2023/05/03 02:44:17;;;;;;;1.67;0.95;;;;;;;;;;5055934;28;20055;-82
2023/05/03 02:46:49;;;;;;;6.80;1.08;;;;;;;;;;5057015;28;20024;-83
2023/05/03 02:49:17;;;;;;;2.60;1.40;;;;;;;;;;5063891;28;20427;-82
2023/05/03 02:51:46;;;;;;;1.33;1.00;;;;;;;;;;5065601;28;20028;-88
2023/05/03 02:54:26;;;;;;;1.23;0.98;;;;;;;;;;5061736;28;20032;-84
2023/05/03 02:56:55;;;;;;;7.07;1.10;;;;;;;;;;5060879;28;20036;-89
2023/05/03 02:59:26;;;;;;;2.13;1.27;;;;;;;;;;5059471;28;20041;-82
2023/05/03 03:01:54;;;;;;;1.45;1.20;;;;;;;;;;5054476;28;20032;-86
2023/05/03 03:04:24;;;;;;;3.78;1.02;;;;;;;;;;5060050;28;20076;-83
2023/05/03 03:06:55;;;;;;;1.98;0.73;;;;;;;;;;5061173;28;20029;-85
2023/05/03 03:09:23;;;;;;;2.67;1.23;;;;;;;;;;5059756;28;20055;-83
2023/05/03 03:11:52;;;;;;;2.35;1.35;;;;;;;;;;5065101;28;20457;-84
2023/05/03 03:14:35;;;;;;;1.73;1.15;;;;;;;;;;5066598;28;20129;-88
2023/05/03 03:17:02;;;;;;;2.70;1.77;;;;;;;;;;5058769;28;20028;-83
2023/05/03 03:19:39;;;;;;;0.63;0.60;;;;;;;;;;5064111;28;20028;-84
2023/05/03 03:22:15;;;;;;;2.05;1.35;;;;;;;;;;5065163;28;20028;-86
2023/05/03 03:24:46;;;;;;;2.42;1.45;;;;;;;;;;5066129;28;20036;-90
2023/05/03 03:27:22;;;;;;;0.73;0.55;;;;;;;;;;5060246;28;20481;-87
2023/05/03 03:29:54;;;;;;;3.85;1.45;;;;;;;;;;5063442;28;20092;-86
2023/05/03 03:32:26;;;;;;;1.55;1.05;;;;;;;;;;5067311;28;20028;-85
2023/05/03 03:34:54;;;;;;;1.73;1.05;;;;;;;;;;5066594;28;20041;-82
2023/05/03 03:37:26;;;;;;;2.28;0.85;;;;;;;;;;5070552;28;20025;-83
2023/05/03 03:39:52;;;;;;;1.77;1.42;;;;;;;;;;5057285;28;20036;-83
2023/05/03 03:42:42;;;;;;;4.35;2.15;;;;;;;;;;5062896;28;20029;-85
2023/05/03 03:45:25;;;;;;;2.20;1.58;;;;;;;;;;5050626;28;20045;-83
2023/05/03 03:47:55;;;;;;;3.90;0.70;;;;;;;;;;5038072;28;20032;-86
2023/05/03 03:50:27;;;;;;;0.73;0.70;;;;;;;;;;5036585;28;20442;-89
2023/05/03 03:52:57;;;;;;;3.28;1.08;;;;;;;;;;5036823;28;20037;-84
2023/05/03 03:55:28;;;;;;;2.42;1.42;;;;;;;;;;5040577;28;20110;-85
2023/05/03 03:58:05;;;;;;;2.33;1.25;;;;;;;;;;5037048;28;20862;-85
2023/05/03 04:00:36;;;;;;;2.92;1.60;;;;;;;;;;5054814;28;20072;-85
2023/05/03 04:03:05;;;;;;;1.02;0.85;;;;;;;;;;5049318;28;20045;-84
2023/05/03 04:05:38;;;;;;;1.77;1.23;;;;;;;;;;5070401;28;20048;-83
2023/05/03 04:08:19;;;;;;;2.95;1.70;;;;;;;;;;5055192;28;20086;-85
2023/05/03 04:10:50;;;;;;;3.53;1.23;;;;;;;;;;5074558;28;20037;-85
2023/05/03 04:13:38;;;;;;;1.30;1.10;;;;;;;;;;5070218;28;20029;-87
2023/05/03 04:16:12;;;;;;;1.88;1.23;;;;;;;;;;5066058;28;20036;-89
2023/05/03 04:18:45;;;;;;;1.70;1.13;;;;;;;;;;5075187;28;20399;-85
2023/05/03 04:21:47;;;;;;;2.05;1.17;;;;;;;;;;5080042;28;20024;-82
2023/05/03 04:24:21;;;;;;;0.88;0.70;;;;;;;;;;5068266;28;20065;-82
2023/05/03 04:26:56;;;;;;;2.05;1.63;;;;;;;;;;5083289;28;20024;-84
2023/05/03 04:29:22;;;;;;;1.00;0.95;;;;;;;;;;5079908;28;20032;-82
2023/05/03 04:31:47;;;;;;;0.85;0.77;;;;;;;;;;5078662;28;20373;-85
2023/05/03 04:34:14;;;;;;;1.02;0.77;;;;;;;;;;5079301;28;20536;-83
2023/05/03 04:36:41;;;;;;;2.15;1.52;;;;;;;;;;5064953;28;20589;-84
2023/05/03 04:39:07;;;;;;;2.55;1.55;;;;;;;;;;5061558;28;20051;-83
2023/05/03 04:41:33;;;;;;;1.33;0.95;;;;;;;;;;5080176;28;20032;-86
2023/05/03 04:43:58;;;;;;;1.75;1.02;;;;;;;;;;5062121;28;20039;-85
2023/05/03 04:46:24;;;;;;;1.63;1.35;;;;;;;;;;5061441;28;20031;-83
2023/05/03 04:48:50;;;;;;;2.20;1.10;;;;;;;;;;5061205;28;20063;-82
2023/05/03 04:51:15;;;;;;;5.53;1.30;;;;;;;;;;5048303;28;20067;-84
2023/05/03 04:53:40;;;;;;;2.30;1.13;;;;;;;;;;5065939;28;20031;-85
2023/05/03 04:56:06;;;;;;;4.25;1.98;;;;;;;;;;5058517;28;20029;-85
2023/05/03 04:58:32;;;;;;;2.58;1.50;;;;;;;;;;5055448;28;20519;-82
2023/05/03 05:00:57;;;;;;;6.35;1.58;;;;;;;;;;5057048;28;20024;-81
2023/05/03 05:03:23;;;;;;;3.72;1.00;;;;;;;;;;5052328;28;20037;-84
2023/05/03 05:05:48;;;;;;;3.60;1.55;;;;;;;;;;5057135;28;20083;-87
2023/05/03 05:08:15;;;;;;;2.80;1.42;;;;;;;;;;5056549;28;20044;-82
2023/05/03 05:10:40;;;;;;;1.20;0.88;;;;;;;;;;5059865;28;20483;-81
2023/05/03 05:13:06;;;;;;;1.95;1.15;;;;;;;;;;5057452;28;20111;-79
2023/05/03 05:15:31;;;;;;;1.60;1.30;;;;;;;;;;5052595;28;20116;-79
2023/05/03 05:17:57;;;;;;;2.35;1.20;;;;;;;;;;5052639;28;20035;-80
2023/05/03 05:20:22;;;;;;;1.65;0.93;;;;;;;;;;5059700;28;20040;-81
2023/05/03 05:22:47;;;;;;;1.45;1.20;;;;;;;;;;5047585;28;20036;-82
2023/05/03 05:25:13;;;;;;;1.80;1.33;;;;;;;;;;5055506;28;20021;-83
2023/05/03 05:27:38;;;;;;;3.42;1.35;;;;;;;;;;5058731;28;20040;-82
2023/05/03 05:30:05;;;;;;;2.75;1.70;;;;;;;;;;5062532;28;20097;-82
2023/05/03 05:32:30;;;;;;;2.35;1.25;;;;;;;;;;5052465;28;20032;-82
2023/05/03 05:34:56;;;;;;;1.58;1.10;;;;;;;;;;5062576;28;20384;-82
2023/05/03 05:37:22;;;;;;;1.77;1.05;;;;;;;;;;5062666;28;20103;-82
2023/05/03 05:39:48;;;;;;;3.17;1.83;;;;;;;;;;5057811;28;20521;-84
2023/05/03 05:42:13;;;;;;;1.52;1.30;;;;;;;;;;5059287;28;20017;-81
2023/05/03 05:44:39;;;;;;;1.52;1.05;;;;;;;;;;5060763;28;20045;-81
2023/05/03 05:47:05;;;;;;;1.60;1.27;;;;;;;;;;5058013;28;20080;-84
2023/05/03 05:49:31;;;;;;;2.72;1.35;;;;;;;;;;5062420;28;20064;-81
2023/05/03 05:51:56;;;;;;;3.85;1.48;;;;;;;;;;5054515;28;20024;-83
2023/05/03 05:54:22;;;;;;;2.10;1.42;;;;;;;;;;5055852;28;20056;-82
2023/05/03 05:56:47;;;;;;;1.65;1.00;;;;;;;;;;5060899;28;20028;-83
2023/05/03 05:59:13;;;;;;;3.75;1.73;;;;;;;;;;5060355;28;20017;-82
2023/05/03 06:01:43;;;;;;;4.78;1.42;;;;;;;;;;5057691;28;20032;-82
2023/05/03 06:04:09;;;;;;;1.67;1.08;;;;;;;;;;5055131;28;20048;-82
2023/05/03 06:06:35;;;;;;;1.67;1.42;;;;;;;;;;5059142;28;20029;-83
2023/05/03 06:09:00;;;;;;;2.42;1.35;;;;;;;;;;5064684;28;20474;-82
2023/05/03 06:11:26;;;;;;;2.15;1.13;;;;;;;;;;5057794;28;20032;-85
2023/05/03 06:13:51;;;;;;;9.93;1.48;;;;;;;;;;5059311;28;20480;-83
2023/05/03 06:16:17;;;;;;;3.10;1.35;;;;;;;;;;5053541;28;20024;-82
2023/05/03 06:18:42;;;;;;;3.00;1.77;;;;;;;;;;5052322;28;20029;-83
2023/05/03 06:21:09;;;;;;;1.60;1.27;;;;;;;;;;5060720;28;20460;-82
2023/05/03 06:23:36;;;;;;;2.97;1.23;;;;;;;;;;5052950;28;20036;-83
2023/05/03 06:26:02;;;;;;;3.05;1.58;;;;;;;;;;5057766;28;20090;-82
2023/05/03 06:28:28;;;;;;;1.42;0.93;;;;;;;;;;5061473;28;20044;-83
2023/05/03 06:30:53;;;;;;;2.90;1.33;;;;;;;;;;5065481;28;20051;-83
2023/05/03 06:33:18;;;;;;;3.13;1.38;;;;;;;;;;5059476;28;20107;-83
2023/05/03 06:35:46;;;;;;;2.33;1.27;;;;;;;;;;5056408;28;20086;-83
2023/05/03 06:38:11;;;;;;;2.03;1.20;;;;;;;;;;5054419;28;20052;-83
2023/05/03 06:40:37;;;;;;;1.98;1.48;;;;;;;;;;5064131;28;20499;-83
2023/05/03 06:43:02;;;;;;;4.90;1.75;;;;;;;;;;5062177;28;20738;-83
2023/05/03 06:45:28;;;;;;;2.40;1.35;;;;;;;;;;5064341;28;20029;-82
2023/05/03 06:47:56;;;;;;;1.63;1.08;;;;;;;;;;5063353;28;20473;-82
2023/05/03 06:50:23;;;;;;;2.58;1.55;;;;;;;;;;5066064;28;20036;-79
2023/05/03 06:52:49;;;;;;;3.50;1.30;;;;;;;;;;5052752;28;20033;-84
2023/05/03 06:55:15;;;;;;;1.08;0.82;;;;;;;;;;5052988;28;20029;-84
2023/05/03 06:57:41;;;;;;;3.85;1.90;;;;;;;;;;5061444;28;20024;-83
2023/05/03 07:00:07;;;;;;;2.90;1.15;;;;;;;;;;5058435;28;20040;-82
2023/05/03 07:02:33;;;;;;;1.27;0.98;;;;;;;;;;5061437;28;20048;-83
2023/05/03 07:04:58;;;;;;;1.30;0.88;;;;;;;;;;5051917;28;20373;-82
2023/05/03 07:07:24;;;;;;;2.40;1.13;;;;;;;;;;5056096;28;20103;-83
2023/05/03 07:09:50;;;;;;;2.03;1.13;;;;;;;;;;5056246;28;20030;-84
2023/05/03 07:12:15;;;;;;;1.45;1.13;;;;;;;;;;5058710;28;20436;-82
2023/05/03 07:14:41;;;;;;;1.55;1.10;;;;;;;;;;5054203;28;20443;-84
2023/05/03 07:17:08;;;;;;;1.55;1.17;;;;;;;;;;5066578;28;20047;-82
2023/05/03 07:19:33;;;;;;;1.58;1.20;;;;;;;;;;5064611;28;20060;-84
2023/05/03 07:21:59;;;;;;;1.67;1.23;;;;;;;;;;5055778;28;20523;-82
2023/05/03 07:24:25;;;;;;;3.63;1.80;;;;;;;;;;5057367;28;20021;-83
2023/05/03 07:26:51;;;;;;;1.17;1.08;;;;;;;;;;5057834;28;20056;-83
2023/05/03 07:29:17;;;;;;;1.63;1.52;;;;;;;;;;5059070;28;20082;-83
2023/05/03 07:31:43;;;;;;;2.35;1.30;;;;;;;;;;5056526;28;20021;-82
2023/05/03 07:34:09;;;;;;;2.92;1.42;;;;;;;;;;5063648;28;20020;-82
2023/05/03 07:36:35;;;;;;;6.78;1.45;;;;;;;;;;5061165;28;20025;-83
2023/05/03 07:39:00;;;;;;;2.20;1.35;;;;;;;;;;5061165;28;20041;-83
2023/05/03 07:41:26;;;;;;;7.38;2.17;;;;;;;;;;5060083;28;20469;-83
2023/05/03 07:43:51;;;;;;;2.28;1.35;;;;;;;;;;5058628;28;20056;-82
2023/05/03 07:46:17;;;;;;;3.17;1.60;;;;;;;;;;5061978;28;20385;-83
2023/05/03 07:48:42;;;;;;;2.63;1.52;;;;;;;;;;5060416;28;20025;-82
2023/05/03 07:51:07;;;;;;;2.53;1.52;;;;;;;;;;5056911;28;20047;-82
2023/05/03 07:53:34;;;;;;;2.50;1.60;;;;;;;;;;5059256;28;20028;-82
2023/05/03 07:56:00;;;;;;;3.83;1.52;;;;;;;;;;5059002;28;20093;-84
2023/05/03 07:58:25;;;;;;;2.30;1.23;;;;;;;;;;5055746;28;20068;-83
2023/05/03 08:00:51;;;;;;;2.00;1.50;;;;;;;;;;5058835;28;20491;-81
2023/05/03 08:03:17;;;;;;;1.95;1.52;;;;;;;;;;5060987;28;20044;-83
2023/05/03 08:05:42;;;;;;;1.95;1.10;;;;;;;;;;5058578;28;20021;-84
2023/05/03 08:08:09;;;;;;;2.00;1.40;;;;;;;;;;5060264;28;20028;-84
2023/05/03 08:10:36;;;;;;;1.85;1.42;;;;;;;;;;5054512;28;20043;-83
2023/05/03 08:13:04;;;;;;;1.30;1.20;;;;;;;;;;5059096;28;20037;-85
2023/05/03 08:15:30;;;;;;;3.30;1.35;;;;;;;;;;5066625;28;20094;-85
2023/05/03 08:17:55;;;;;;;2.35;1.52;;;;;;;;;;5060095;28;20472;-84
2023/05/03 08:20:20;;;;;;;2.75;1.50;;;;;;;;;;5062109;28;20032;-83
2023/05/03 08:22:46;;;;;;;1.80;1.27;;;;;;;;;;5050735;28;20036;-83
2023/05/03 08:25:11;;;;;;;1.90;1.30;;;;;;;;;;5059988;28;20020;-84
2023/05/03 08:27:37;;;;;;;2.90;1.55;;;;;;;;;;5063117;28;20028;-84
2023/05/03 08:30:04;;;;;;;1.42;1.00;;;;;;;;;;5056652;28;20111;-84
2023/05/03 08:32:29;;;;;;;2.13;1.58;;;;;;;;;;5060909;28;20029;-82
2023/05/03 08:34:55;;;;;;;2.10;1.45;;;;;;;;;;5057837;28;20021;-83
2023/05/03 08:37:22;;;;;;;3.38;1.75;;;;;;;;;;5052570;28;20025;-82
2023/05/03 08:39:50;;;;;;;2.25;1.50;;;;;;;;;;5062900;28;20036;-82
2023/05/03 08:42:18;;;;;;;2.47;1.50;;;;;;;;;;5055613;28;20401;-82
2023/05/03 08:44:48;;;;;;;2.58;1.95;;;;;;;;;;5053404;28;20020;-82
2023/05/03 08:47:15;;;;;;;;;;;;;;;;;;5060835;28;20464;-81
2023/05/03 08:49:45;;;;;;;2.22;1.58;;;;;;;;;;5050281;28;20708;-83
2023/05/03 08:52:19;;;;;;;2.22;1.60;;;;;;;;;;5066243;28;20063;-84
2023/05/03 08:54:44;;;;;;;3.13;1.45;;;;;;;;;;5059983;28;20036;-83
2023/05/03 08:57:13;;;;;;;2.92;1.58;;;;;;;;;;5054921;28;20384;-83
2023/05/03 08:59:48;;;;;;;2.35;1.67;;;;;;;;;;5055221;28;20025;-83
2023/05/03 09:02:15;;;;;;;2.65;1.75;;;;;;;;;;5058842;28;20016;-84
2023/05/03 09:04:40;;;;;;;4.00;2.10;;;;;;;;;;5056656;28;20530;-83
2023/05/03 09:07:10;;;;;;;3.25;1.88;;;;;;;;;;5055671;28;20115;-82
2023/05/03 09:09:42;;;;;;;3.00;1.90;;;;;;;;;;5055261;28;20029;-83
2023/05/03 09:12:29;;;;;;;3.47;2.05;;;;;;;;;;5056806;28;20108;-82
2023/05/03 09:14:54;;;;;;;4.32;1.88;;;;;;;;;;5056174;28;20070;-83
2023/05/03 09:17:26;;;;;;;4.00;1.98;;;;;;;;;;5056935;28;20029;-82
2023/05/03 09:19:56;;;;;;;3.47;2.10;;;;;;;;;;5059540;28;20033;-84
2023/05/03 09:22:24;;;;;;;2.92;2.20;;;;;;;;;;5060788;28;20024;-83
2023/05/03 09:24:58;;;;;;;3.05;1.50;;;;;;;;;;5054960;28;20066;-82
2023/05/03 09:27:44;;;;;;;2.53;1.90;;;;;;;;;;5057236;28;20100;-83
2023/05/03 09:30:19;;;;;;;1.35;1.23;;;;;;;;;;5062137;28;20036;-83
2023/05/03 09:32:57;;;;;;;1.92;1.50;;;;;;;;;;5054474;28;20496;-82
2023/05/03 09:35:25;;;;;;;2.75;1.67;;;;;;;;;;5050906;28;20037;-83
2023/05/03 09:37:51;;;;;;;2.47;2.20;;;;;;;;;;5058653;28;20135;-83
2023/05/03 09:40:19;;;;;;;2.92;1.90;;;;;;;;;;5052579;28;20047;-82
2023/05/03 09:43:16;;;;;;;4.25;2.30;;;;;;;;;;5061445;28;20024;-84
2023/05/03 09:45:44;;;;;;;2.25;1.40;;;;;;;;;;5062960;28;20029;-82
2023/05/03 09:48:13;;;;;;;2.70;1.88;;;;;;;;;;5054944;28;20025;-82
2023/05/03 09:50:41;;;;;;;3.05;1.98;;;;;;;;;;5055336;28;20025;-82
2023/05/03 09:53:11;;;;;;;5.43;2.10;;;;;;;;;;5059718;28;20024;-82
2023/05/03 09:55:54;;;;;;;3.10;2.15;;;;;;;;;;5049631;28;20033;-82
2023/05/03 09:58:34;;;;;;;;;;;;;;;;;;;;;
2023/05/03 10:01:00;;;;;;;4.43;1.80;;;;;;;;;;5060431;28;20027;-81
2023/05/03 10:03:38;;;;;;;2.35;1.60;;;;;;;;;;5058036;28;20139;-81
2023/05/03 10:06:06;;;;;;;1.75;1.30;;;;;;;;;;5050480;28;20029;-81
2023/05/03 10:08:54;;;;;;;2.38;1.40;;;;;;;;;;5056638;28;20066;-82
2023/05/03 10:11:23;;;;;;;3.95;1.40;;;;;;;;;;5041134;28;20044;-81
2023/05/03 10:13:48;;;;;;;1.83;1.63;;;;;;;;;;5057016;28;20024;-83
2023/05/03 10:16:21;;;;;;;1.65;1.45;;;;;;;;;;5054605;28;20530;-82
2023/05/03 10:18:53;;;;;;;2.85;1.35;;;;;;;;;;5055614;28;20491;-83
2023/05/03 10:21:47;;;;;;;1.60;1.30;;;;;;;;;;5056994;28;20060;-82
2023/05/03 10:24:14;;;;;;;2.72;1.48;;;;;;;;;;5050006;28;20024;-82
2023/05/03 10:26:45;;;;;;;3.97;2.03;;;;;;;;;;5061022;28;20033;-82
2023/05/03 10:29:47;;;;;;;2.00;1.60;;;;;;;;;;5060226;28;20112;-82
2023/05/03 10:32:35;;;;;;;2.45;1.38;;;;;;;;;;5008670;28;20033;-82
2023/05/03 10:35:02;;;;;;;4.43;1.38;;;;;;;;;;5052509;28;20098;-82
2023/05/03 10:37:28;;;;;;;3.50;1.35;;;;;;;;;;5053959;28;20029;-82
2023/05/03 10:39:54;;;;;;;3.55;1.73;;;;;;;;;;5062172;28;20028;-82
2023/05/03 10:42:25;;;;;;;2.83;1.42;;;;;;;;;;5057912;28;20182;-82
2023/05/03 10:44:52;;;;;;;1.40;1.13;;;;;;;;;;5054484;28;20013;-80
2023/05/03 10:47:21;;;;;;;2.60;1.63;;;;;;;;;;5061056;28;20033;-81
2023/05/03 10:49:47;;;;;;;2.25;1.58;;;;;;;;;;5063680;28;20074;-81
2023/05/03 10:52:34;;;;;;;2.50;1.40;;;;;;;;;;5050897;28;20032;-81
2023/05/03 10:55:08;;;;;;;2.08;1.45;;;;;;;;;;5057670;28;20467;-81
2023/05/03 10:57:36;;;;;;;1.80;1.40;;;;;;;;;;5050158;28;20029;-82
2023/05/03 11:00:07;;;;;;;2.35;1.60;;;;;;;;;;5059101;28;20060;-81
2023/05/03 11:02:38;;;;;;;2.10;1.30;;;;;;;;;;5058181;28;20128;-81
2023/05/03 11:05:09;;;;;;;3.65;1.67;;;;;;;;;;5051504;28;20025;-81
2023/05/03 11:07:35;;;;;;;2.05;1.50;;;;;;;;;;5062709;28;20040;-80
2023/05/03 11:10:15;;;;;;;3.72;1.52;;;;;;;;;;5048550;28;20029;-80
2023/05/03 11:12:40;;;;;;;2.28;1.48;;;;;;;;;;5058116;28;20032;-81
2023/05/03 11:15:06;;;;;;;3.28;1.90;;;;;;;;;;5060204;28;20074;-81
2023/05/03 11:17:32;;;;;;;3.28;2.15;;;;;;;;;;5068339;28;20028;-80
2023/05/03 11:19:57;;;;;;;1.90;1.30;;;;;;;;;;5058278;28;20032;-81
2023/05/03 11:22:23;;;;;;;4.40;2.22;;;;;;;;;;5068394;28;20099;-81
2023/05/03 11:24:50;;;;;;;2.08;1.45;;;;;;;;;;5053690;28;20025;-82
2023/05/03 11:27:22;;;;;;;2.90;1.60;;;;;;;;;;5059058;28;20029;-80
2023/05/03 11:29:48;;;;;;;2.30;1.60;;;;;;;;;;5058977;28;20544;-81
2023/05/03 11:32:15;;;;;;;3.50;1.48;;;;;;;;;;5052760;28;20092;-81
2023/05/03 11:34:40;;;;;;;1.25;1.10;;;;;;;;;;5059997;28;21298;-81
2023/05/03 11:37:07;;;;;;;1.50;1.38;;;;;;;;;;5059276;28;20025;-82
2023/05/03 11:39:33;;;;;;;3.40;1.42;;;;;;;;;;5060951;28;20132;-80
2023/05/03 11:42:04;;;;;;;1.98;1.60;;;;;;;;;;5064651;28;20103;-82
2023/05/03 11:44:30;;;;;;;6.25;1.70;;;;;;;;;;5061881;28;20484;-81
2023/05/03 11:46:56;;;;;;;4.25;1.88;;;;;;;;;;5056365;28;20162;-82
2023/05/03 11:49:22;;;;;;;2.15;1.48;;;;;;;;;;5054571;28;20039;-81
2023/05/03 11:51:50;;;;;;;2.53;1.50;;;;;;;;;;5062482;28;20025;-81
2023/05/03 11:54:16;;;;;;;2.25;1.48;;;;;;;;;;5063559;28;20035;-82
2023/05/03 11:56:41;;;;;;;3.58;1.75;;;;;;;;;;5061735;28;20024;-82
2023/05/03 11:59:07;;;;;;;4.43;1.77;;;;;;;;;;5062210;28;20029;-81
2023/05/03 12:01:33;;;;;;;1.77;1.30;;;;;;;;;;5056215;28;20126;-81
2023/05/03 12:04:00;;;;;;;1.42;1.27;;;;;;;;;;5061596;28;20131;-82
2023/05/03 12:06:28;;;;;;;2.30;1.50;;;;;;;;;;5050316;28;20021;-81
2023/05/03 12:08:55;;;;;;;1.52;1.25;;;;;;;;;;5065813;28;20044;-79
2023/05/03 12:11:21;;;;;;;3.10;1.38;;;;;;;;;;5060713;28;20025;-80
2023/05/03 12:13:58;;;;;;;2.53;1.60;;;;;;;;;;5056067;28;20041;-80
2023/05/03 12:16:24;;;;;;;2.22;1.70;;;;;;;;;;5058982;28;20036;-80
2023/05/03 12:19:01;;;;;;;2.03;1.35;;;;;;;;;;5052908;28;20119;-80
2023/05/03 12:21:43;;;;;;;3.00;1.58;;;;;;;;;;5053313;28;20465;-84
2023/05/03 12:24:09;;;;;;;3.10;1.75;;;;;;;;;;5062331;28;20028;-82
2023/05/03 12:26:34;;;;;;;5.03;2.03;;;;;;;;;;5066814;28;20032;-80
2023/05/03 12:29:00;;;;;;;2.63;1.63;;;;;;;;;;5061394;28;20025;-82
2023/05/03 12:31:27;;;;;;;2.67;1.77;;;;;;;;;;5065641;28;20029;-82
2023/05/03 12:33:52;;;;;;;2.33;1.83;;;;;;;;;;5059743;28;20021;-83
2023/05/03 12:36:18;;;;;;;1.90;1.27;;;;;;;;;;5053769;28;20071;-83
2023/05/03 12:38:43;;;;;;;1.88;1.38;;;;;;;;;;5068603;28;20028;-83
2023/05/03 12:41:10;;;;;;;2.80;2.03;;;;;;;;;;5052385;28;20020;-83
2023/05/03 12:43:36;;;;;;;2.17;1.50;;;;;;;;;;5056122;28;20878;-83
2023/05/03 12:46:02;;;;;;;6.18;2.13;;;;;;;;;;5053257;28;20025;-82
2023/05/03 12:48:29;;;;;;;4.55;1.40;;;;;;;;;;5064444;28;20028;-83
2023/05/03 12:50:55;;;;;;;2.22;1.45;;;;;;;;;;5058255;28;20107;-80
2023/05/03 12:53:21;;;;;;;2.30;1.70;;;;;;;;;;5050625;28;20112;-84
2023/05/03 12:55:47;;;;;;;2.92;1.90;;;;;;;;;;5054861;28;20032;-83
2023/05/03 12:58:12;;;;;;;2.88;1.90;;;;;;;;;;5058857;28;20032;-83
2023/05/03 13:00:38;;;;;;;2.08;1.50;;;;;;;;;;5056952;28;20376;-83
2023/05/03 13:03:04;;;;;;;4.70;1.70;;;;;;;;;;5055841;28;20052;-83
2023/05/03 13:05:29;;;;;;;4.78;1.77;;;;;;;;;;5055114;28;20029;-82
2023/05/03 13:07:56;;;;;;;4.45;2.45;;;;;;;;;;5057311;28;20025;-82
2023/05/03 13:10:21;;;;;;;3.13;1.77;;;;;;;;;;5058328;28;20024;-82
2023/05/03 13:12:47;;;;;;;2.83;1.85;;;;;;;;;;5058132;28;20120;-81
2023/05/03 13:15:13;;;;;;;2.88;2.42;;;;;;;;;;5052699;28;20025;-82
2023/05/03 13:17:39;;;;;;;2.92;1.73;;;;;;;;;;5057941;28;20461;-82
2023/05/03 13:20:06;;;;;;;3.92;1.95;;;;;;;;;;5051356;28;20359;-82
2023/05/03 13:22:48;;;;;;;3.38;2.45;;;;;;;;;;5051643;28;20036;-83
2023/05/03 13:25:14;;;;;;;3.88;2.40;;;;;;;;;;5050317;28;20040;-82
2023/05/03 13:28:18;;;;;;;3.45;2.15;;;;;;;;;;5058054;28;20389;-85
2023/05/03 13:31:17;;;;;;;6.13;2.47;;;;;;;;;;5055541;28;20032;-82
2023/05/03 13:40:56;;;;;;;4.75;2.65;;;;;;;;;;5013785;28;20115;-82
2023/05/03 13:46:45;;;;;;;5.72;2.88;;;;;;;;;;5060702;28;20066;-82
2023/05/03 13:49:31;;;;;;;7.32;3.17;;;;;;;;;;5060108;28;20089;-84
2023/05/03 13:52:09;;;;;;;4.70;3.17;;;;;;;;;;5056870;28;20028;-84
2023/05/03 13:55:01;;;;;;;;;;;;;;;;;;;;;
2023/05/03 13:57:27;;;;;;;4.03;2.80;;;;;;;;;;5052570;28;20043;-86
2023/05/03 13:59:52;;;;;;;6.10;2.95;;;;;;;;;;5060512;28;20107;-86
2023/05/03 14:02:18;;;;;;;3.53;2.50;;;;;;;;;;5051430;28;20016;-86
2023/05/03 14:04:46;;;;;;;5.15;3.13;;;;;;;;;;5057373;28;20075;-87
2023/05/03 14:07:12;;;;;;;5.90;3.40;;;;;;;;;;5051122;28;20048;-87
2023/05/03 14:09:38;;;;;;;7.50;3.17;;;;;;;;;;5059043;28;20029;-85
2023/05/03 14:12:05;;;;;;;5.55;3.67;;;;;;;;;;5048138;28;20031;-87
2023/05/03 14:14:31;;;;;;;4.80;2.85;;;;;;;;;;5059814;28;20032;-86
2023/05/03 14:16:56;;;;;;;4.35;2.70;;;;;;;;;;5050532;28;20053;-85
2023/05/03 14:19:22;;;;;;;7.85;4.40;;;;;;;;;;5056562;28;20105;-86
2023/05/03 14:21:50;;;;;;;4.65;3.10;;;;;;;;;;5044451;28;20067;-87
2023/05/03 14:24:15;;;;;;;5.47;2.92;;;;;;;;;;5038624;28;20049;-84
2023/05/03 14:26:41;;;;;;;7.60;3.92;;;;;;;;;;5051772;28;20092;-84
2023/05/03 14:29:06;;;;;;;4.85;3.10;;;;;;;;;;5060511;28;20020;-85
2023/05/03 14:31:32;;;;;;;5.35;2.97;;;;;;;;;;5061991;28;20033;-85
2023/05/03 14:33:58;;;;;;;7.30;4.00;;;;;;;;;;5055294;28;20024;-86
2023/05/03 14:36:30;;;;;;;4.93;3.75;;;;;;;;;;5062364;28;20108;-87
2023/05/03 14:38:55;;;;;;;4.50;2.83;;;;;;;;;;5058953;28;20043;-86
2023/05/03 14:41:21;;;;;;;5.07;2.80;;;;;;;;;;5061599;28;20028;-85
2023/05/03 14:43:46;;;;;;;5.10;2.42;;;;;;;;;;5061991;28;20549;-85
2023/05/03 14:46:11;;;;;;;4.78;2.65;;;;;;;;;;5059457;28;20027;-87
2023/05/03 14:48:37;;;;;;;2.28;1.77;;;;;;;;;;5056401;28;20024;-85
2023/05/03 14:51:02;;;;;;;6.55;3.40;;;;;;;;;;5060891;28;20026;-84
2023/05/03 14:53:28;;;;;;;6.00;3.22;;;;;;;;;;5061790;28;20056;-87
2023/05/03 14:55:53;;;;;;;11.57;2.28;;;;;;;;;;5059752;28;20025;-85
2023/05/03 14:58:19;;;;;;;6.30;2.55;;;;;;;;;;5049781;28;20373;-86
2023/05/03 15:00:44;;;;;;;4.05;2.83;;;;;;;;;;5067360;28;20041;-87
2023/05/03 15:03:10;;;;;;;3.33;2.20;;;;;;;;;;5057721;28;20044;-85
2023/05/03 15:05:48;;;;;;;4.72;2.38;;;;;;;;;;5055228;28;20492;-86
2023/05/03 15:08:16;;;;;;;3.15;2.13;;;;;;;;;;5063049;28;20147;-84
2023/05/03 15:10:43;;;;;;;5.55;3.08;;;;;;;;;;5057515;28;20083;-86
2023/05/03 15:13:09;;;;;;;4.30;2.67;;;;;;;;;;5061268;28;20754;-87
2023/05/03 15:15:36;;;;;;;3.55;2.38;;;;;;;;;;5064096;28;20481;-88